Latest Coastal Weather Observations for Holmes Reef

IDQ60701

Issued at 12:02 am EST Thursday 11 August 2022 (issued every 10 minutes, with the page automatically refreshed every 10 minutes)

About coastal observations | Map of coastal stations | Coastal observations for QLD | Marine services | Other Formats
Station Details ID: 200732 Name: HOLMES REEF Lat: -16.47 Lon: 147.87 Height: 1.9 m
Data from the previous 72 hours. | See also: Recent months at Holmes Reef
Date/Time
EST
Wind Sea
Height
m
Swell Vis
km
Cloud Weather Temp
°C
Press
MSL
hPa
Rain since
9am
mm
Dir  Spd
kts
Gust
kts
Height
m
Period
s
Dir
11/12:00am ESE 24 29 - - - - - - - 23.7 1016.7 -
 
Date/Time
EST
Wind Sea
Height
m
Swell Vis
km
Cloud Weather Temp
°C
Press
MSL
hPa
Rain since
9am
mm
Dir  Spd
kts
Gust
kts
Height
m
Period
s
Dir
10/11:30pm ESE 25 30 - - - - - - - 23.8 1017.1 -
10/11:15pm ESE 19 29 - - - - - - - 23.8 1017.2 -
10/11:00pm ESE 22 27 - - - - - - - 23.7 1017.5 -
10/10:30pm ESE 20 23 - - - - - - - 24.1 1017.6 -
10/10:00pm ESE 22 26 - - - - - - - 24.4 1017.7 -
10/09:30pm ESE 21 25 - - - - - - - 24.2 1017.6 -
10/09:00pm ESE 22 26 - - - - - - - 24.0 1017.6 -
10/08:30pm ESE 23 27 - - - - - - - 24.2 1017.5 -
10/08:00pm ESE 24 29 - - - - - - - 24.2 1017.0 -
10/07:30pm ESE 24 28 - - - - - - - 24.3 1016.7 -
10/07:00pm ESE 23 27 - - - - - - - 24.0 1016.4 -
10/06:30pm ESE 24 27 - - - - - - - 24.1 1016.0 -
10/06:00pm ESE 22 26 - - - - - - - 24.2 1015.9 -
10/05:30pm ESE 23 27 - - - - - - - 24.2 1015.6 -
10/05:00pm SE 25 29 - - - - - - - 23.9 1015.2 -
10/04:30pm SE 24 29 - - - - - - - 23.9 1015.1 -
10/04:00pm ESE 23 27 - - - - - - - 23.9 1015.0 -
10/03:30pm ESE 23 25 - - - - - - - 24.0 1014.9 -
10/03:00pm ESE 22 25 - - - - - - - 24.0 1014.9 -
10/02:30pm ESE 21 25 - - - - - - - 24.1 1015.1 -
10/02:00pm ESE 21 25 - - - - - - - 24.0 1015.3 -
10/01:30pm SE 21 24 - - - - - - - 24.2 1015.7 -
10/01:00pm SE 20 25 - - - - - - - 24.0 1015.8 -
10/12:30pm SE 21 25 - - - - - - - 24.0 1016.1 -
10/12:00pm SE 21 24 - - - - - - - 24.0 1016.6 -
10/11:30am SE 22 26 - - - - - - - 23.9 1017.1 -
10/11:00am SE 22 25 - - - - - - - 23.9 1017.5 -
10/10:30am ESE 23 27 - - - - - - - 23.9 1017.6 -
10/10:00am ESE 22 26 - - - - - - - 24.0 1017.8 -
10/09:30am ESE 21 24 - - - - - - - 24.1 1017.8 -
10/09:00am ESE 17 21 - - - - - - - 23.7 1017.8 -
10/08:30am ESE 19 23 - - - - - - - 23.7 1017.5 -
10/08:00am ESE 19 21 - - - - - - - 23.7 1017.2 -
10/07:30am ESE 20 23 - - - - - - - 23.7 1017.1 -
10/07:00am SE 20 25 - - - - - - - 23.6 1016.7 -
10/06:30am SE 19 24 - - - - - - - 23.8 1016.4 -
10/06:00am ESE 21 27 - - - - - - - 23.4 1015.9 -
10/05:30am ESE 20 23 - - - - - - - 23.3 1015.6 -
10/05:00am ESE 20 24 - - - - - - - 23.3 1015.1 -
10/04:30am ESE 19 25 - - - - - - - 23.4 1015.0 -
10/04:00am SE 18 21 - - - - - - - 23.1 1015.0 -
10/03:30am SE 19 22 - - - - - - - 23.2 1015.1 -
10/03:00am SE 18 22 - - - - - - - 23.3 1015.4 -
10/02:30am SE 18 23 - - - - - - - 23.3 1015.7 -
10/02:00am ESE 19 23 - - - - - - - 23.2 1015.9 -
10/01:30am SE 21 28 - - - - - - - 23.2 1016.1 -
10/01:00am SE 21 25 - - - - - - - 23.0 1016.4 -
10/12:30am SE 20 24 - - - - - - - 22.6 1016.6 -
10/12:00am SE 22 27 - - - - - - - 22.8 1016.7 -
 
Date/Time
EST
Wind Sea
Height
m
Swell Vis
km
Cloud Weather Temp
°C
Press
MSL
hPa
Rain since
9am
mm
Dir  Spd
kts
Gust
kts
Height
m
Period
s
Dir
09/11:30pm SE 21 24 - - - - - - - 23.0 1017.0 -
09/11:00pm ESE 20 22 - - - - - - - 22.9 1017.1 -
09/10:30pm ESE 19 22 - - - - - - - 23.4 1017.4 -
09/10:00pm SE 21 24 - - - - - - - 23.2 1017.3 -
09/09:30pm SE 21 24 - - - - - - - 22.9 1017.3 -
09/09:00pm SE 20 24 - - - - - - - 23.0 1017.3 -
09/08:30pm SE 20 25 - - - - - - - 23.0 1017.2 -
09/08:00pm ESE 21 26 - - - - - - - 23.0 1017.0 -
09/07:30pm SE 20 24 - - - - - - - 22.8 1016.4 -
09/07:00pm SE 22 25 - - - - - - - 22.7 1016.0 -
09/06:30pm SE 21 25 - - - - - - - 22.8 1015.7 -
09/06:00pm SE 21 26 - - - - - - - 22.7 1015.3 -
09/05:30pm SE 21 27 - - - - - - - 22.7 1015.0 -
09/05:00pm SE 21 26 - - - - - - - 22.8 1014.5 -
09/04:30pm SSE 23 26 - - - - - - - 22.8 1013.9 -
09/04:00pm SSE 23 27 - - - - - - - 22.7 1013.6 -
09/03:30pm SSE 21 25 - - - - - - - 23.3 1013.6 -
09/03:00pm SE 23 26 - - - - - - - 22.7 1013.6 -
09/02:30pm SE 21 26 - - - - - - - 22.7 1013.7 -
09/02:00pm SE 22 25 - - - - - - - 22.7 1014.0 -
09/01:30pm SE 22 26 - - - - - - - 22.8 1014.3 -
09/01:00pm SE 21 25 - - - - - - - 22.9 1014.7 -
09/12:30pm SE 21 27 - - - - - - - 22.9 1014.8 -
09/12:00pm SE 22 26 - - - - - - - 22.9 1015.2 -
09/11:30am SE 23 26 - - - - - - - 23.0 1015.5 -
09/11:00am SE 22 25 - - - - - - - 23.3 1015.7 -
09/10:30am SE 23 25 - - - - - - - 23.2 1016.0 -
09/10:00am ESE 21 26 - - - - - - - 23.6 1016.2 -
09/09:30am SE 22 25 - - - - - - - 23.3 1016.4 -
09/09:00am SE 21 25 - - - - - - - 23.5 1016.2 -
09/08:30am SE 22 25 - - - - - - - 23.3 1016.1 -
09/08:00am SE 23 26 - - - - - - - 23.2 1016.0 -
09/07:30am SE 24 27 - - - - - - - 23.2 1015.8 -
09/07:00am SE 24 27 - - - - - - - 23.3 1015.6 -
09/06:30am SE 23 27 - - - - - - - 23.6 1015.3 -
09/06:00am SE 22 26 - - - - - - - 23.7 1015.1 -
09/05:30am SE 23 27 - - - - - - - 23.7 1014.6 -
09/05:00am SE 25 28 - - - - - - - 23.6 1014.2 -
09/04:30am SE 25 29 - - - - - - - 23.8 1013.8 -
09/04:00am ESE 25 29 - - - - - - - 23.6 1013.6 -
09/03:30am SE 24 28 - - - - - - - 23.9 1013.6 -
09/03:00am SE 24 27 - - - - - - - 23.7 1013.9 -
09/02:30am SE 23 26 - - - - - - - 24.0 1014.1 -
09/02:00am SE 24 27 - - - - - - - 24.2 1014.4 -
09/01:30am SE 24 27 - - - - - - - 23.9 1014.5 -
09/01:00am SE 23 27 - - - - - - - 24.1 1014.9 -
09/12:30am SE 24 28 - - - - - - - 23.8 1014.6 -
09/12:00am SE 25 28 - - - - - - - 24.1 1014.8 -
 
Date/Time
EST
Wind Sea
Height
m
Swell Vis
km
Cloud Weather Temp
°C
Press
MSL
hPa
Rain since
9am
mm
Dir  Spd
kts
Gust
kts
Height
m
Period
s
Dir
08/11:30pm SE 24 28 - - - - - - - 23.9 1014.9 -
08/11:00pm SE 25 28 - - - - - - - 24.1 1015.1 -
08/10:30pm SE 26 30 - - - - - - - 24.1 1015.1 -
08/10:00pm SE 26 30 - - - - - - - 24.0 1015.0 -
08/09:30pm SE 26 29 - - - - - - - 24.1 1015.1 -
08/09:00pm SE 25 29 - - - - - - - 24.0 1015.0 -
08/08:30pm SE 23 28 - - - - - - - 24.2 1014.9 -
08/08:00pm SE 25 28 - - - - - - - 24.3 1014.8 -
08/07:30pm SE 24 27 - - - - - - - 24.2 1014.6 -
08/07:00pm SE 23 26 - - - - - - - 24.3 1014.3 -
08/06:30pm SE 23 27 - - - - - - - 24.5 1013.8 -
08/06:00pm SE 23 26 - - - - - - - 24.6 1013.5 -
08/05:30pm SE 23 25 - - - - - - - 24.6 1013.2 -
08/05:00pm SE 22 27 - - - - - - - 24.4 1012.9 -
08/04:30pm SSE 20 23 - - - - - - - 24.2 1012.6 -
08/04:00pm SE 20 23 - - - - - - - 24.3 1012.4 -
08/03:30pm SE 21 25 - - - - - - - 24.8 1012.3 -
08/03:00pm SE 20 22 - - - - - - - 24.8 1012.2 -
08/02:30pm SE 20 23 - - - - - - - 24.8 1012.5 -
08/02:00pm SE 20 23 - - - - - - - 24.7 1012.8 -
08/01:30pm SE 18 21 - - - - - - - 24.6 1013.3 -
08/01:00pm SE 19 21 - - - - - - - 24.6 1013.6 -
08/12:30pm SE 19 22 - - - - - - - 24.8 1013.9 -
08/12:00pm SE 19 22 - - - - - - - 24.9 1014.3 -
08/11:30am ESE 19 22 - - - - - - - 24.9 1014.6 -
08/11:00am ESE 19 21 - - - - - - - 24.8 1014.9 -
08/10:30am SE 17 20 - - - - - - - 24.7 1015.2 -
08/10:00am SE 18 22 - - - - - - - 24.8 1015.3 -
08/09:30am SE 18 21 - - - - - - - 24.7 1015.4 -
08/09:00am SE 15 19 - - - - - - - 24.6 1015.3 -
08/08:30am SE 16 20 - - - - - - - 24.7 1015.2 -
08/08:00am SE 16 18 - - - - - - - 25.0 1014.9 -
08/07:30am ESE 16 19 - - - - - - - 25.1 1014.6 -
08/07:00am SE 15 18 - - - - - - - 24.7 1014.4 -
08/06:30am SE 17 19 - - - - - - - 24.8 1014.1 -
08/06:00am SE 17 20 - - - - - - - 24.7 1013.7 -
08/05:30am ESE 17 20 - - - - - - - 24.6 1013.4 -
08/05:00am SE 15 18 - - - - - - - 24.7 1013.0 -
08/04:30am ESE 16 19 - - - - - - - 24.5 1012.9 -
08/04:00am SE 18 20 - - - - - - - 24.6 1012.8 -
08/03:30am SE 17 19 - - - - - - - 24.3 1012.9 -
08/03:00am SE 17 19 - - - - - - - 24.4 1013.0 -
08/02:30am SE 15 18 - - - - - - - 24.3 1013.2 -
08/02:00am ESE 16 18 - - - - - - - 24.6 1013.4 -
08/01:30am ESE 18 21 - - - - - - - 24.5 1013.4 -
08/01:00am ESE 17 19 - - - - - - - 24.6 1013.6 -
08/12:30am ESE 17 19 - - - - - - - 24.7 1013.8 -

Other formats

Comma delimited format used in spreadsheet applications
http://www.bom.gov.au/fwo/IDQ60701/IDQ60701.94289.axf

JavaScript Object Notation format (JSON) in row-major order
http://www.bom.gov.au/fwo/IDQ60701/IDQ60701.94289.json

Data quality

Most of these data are generated automatically and are frequently updated. Quality checks on data are not normally performed. It is possible for incorrect values to appear. Refer to information at About Latest Weather Observations and please check the disclaimer before using these data.